Language selection

Weather shortcuts

Southwestern Grand Banks: Past 24 Hour Conditions

 

West Chedabucto Bay - 44489

06:00 PM ADT 13 April 2024Buoy position: 45.49N 61.14W
Disclaimer

This table is a summary of hourly weather conditions for the past 24 hours.
Please note that these observations might not always be representative of weather conditions over their associated marine area.

Date / Time
(ADT)
Wind(knots) Wave height(m) Wave period(s) Pressure(kPa) Air tempC) Water tempC)
13 April 2024
18:00 S 26 gusts 32 1.72 5.0 100.5 8 3
17:00 SSW 26 gusts 32 1.59 5.1 100.6 8 3
16:00 SSW 24 gusts 31 1.59 5.1 100.7 8 3
15:00 S 25 gusts 34 1.73 5.2 100.7 8 3
14:00 SSW 24 gusts 30 1.70 5.5 100.9 8 3
13:00 SSW 25 gusts 31 1.76 5.0 100.9 9 3
12:00 S 24 gusts 29 1.57 5.0 101.0 8 3
11:00 SSW 24 gusts 29 1.57 5.1 101.1 8 3
10:00 SSW 29 gusts 34 1.85 4.9 101.1 9 3
9:00 SSW 24 gusts 31 1.63 4.7 101.1 9 3
8:00 SSW 26 gusts 32 1.64 4.7 101.2 9 3
7:00 SSW 25 gusts 31 1.32 4.5 101.2 9 3
6:00 SSW 24 gusts 28 1.38 4.7 101.3 7 2
5:00 SSW 24 gusts 36 1.36 4.8 101.3 8 2
4:00 SSW 25 gusts 31 1.45 4.5 101.4 7 2
3:00 S 23 gusts 31 1.31 4.3 101.5 8 2
2:00 SSW 23 gusts 28 1.42 4.7 101.7 8 2
1:00 SSW 23 gusts 29 1.32 4.6 101.7 8 2
0:00 SSW 24 gusts 29 1.42 4.4 101.8 8 2
12 April 2024
23:00 SSW 23 gusts 26 1.19 4.4 101.8 8 2
22:00 SSW 22 gusts 25 1.15 4.2 101.9 7 2
21:00 SSW 21 gusts 25 1.12 4.1 102.0 7 2
20:00 SSW 21 gusts 24 1.14 4.1 102.0 7 2
19:00 SSW 21 gusts 25 1.03 4.1 102.0 8 2
18:00 SSW 20 gusts 25 1.17 4.2 102.0 7 2

Zoom-in to make a selection

Map of Atlantic - Newfoundland marine weather areas Banquereau - 44139 East Chedabucto Bay – 44488 West Chedabucto Bay – 44489 Blanc-Sablon Airport Cap Whittle Chevery Natashquan Airport Heath Point Îles de la Madeleine Airport Miscou Island Eskasoni (First Nations) Grand Étang Ingonish Beach North Mountain St.Paul Island J.A. Douglas McCurdy Sydney Airport Charlottetown Airport East Point North Cape Argentia Berry Hill Bonavista Burgeo Cape Race Corner Brook Daniel's Harbour Englee Ferolle Point La Scie Port aux Basques Sagona Island St. Anthony Airport St. John's Int'l Airport St. Lawrence Stephenville Airport Twillingate Winterland Branch Hill Wreckhouse Grates Cove Pool's Island Marticot Island Long Pond Cartwright Airport Mary's Harbour
Legend:
buoy Buoy
land station Land Station

Atlantic - Newfoundland Area

Another Region

Date modified: